Airfield :







YOU CAN JOIN US ON...

 
LOGIN :

Register | Disclaimer

   EN    FR    IT 

 









Legend :    VFR   Marginal VFR   IFR   Intensive IFR   Very Intensive IFR
Visi :
Ceiling :
>= 8 km
>= 3000ft
5 to 8 km
1000 to 3000 ft
1500m to 5 km
500 to 1000 ft
800 to 1500m
200 to 500 ft
< 800m
< 200 ft
Symbols :   Thunderstorms  Fog  Heavy snow  Heavy precipitations  Wind > 20 kt






- Airport Elevation : 16 ft
- IATA code : FDF


TFFF - Aime Cesaire

CURRENT METAR :
  • 240930Z AUTO 12004KT CAVOK 26/22 Q1014 TEMPO 4500 SHRA BKN020TCU

EXPIRED METARs :
  • 240900Z AUTO 12004KT 9999 FEW044 SCT054 26/22 Q1014 TEMPO 4500 SHRA BKN020TCU
  • 240830Z AUTO VRB01KT 9999 SCT029 SCT039 BKN060 26/22 Q1014 TEMPO 4500 SHRA BKN020TCU
  • 240800Z AUTO VRB01KT CAVOK 26/22 Q1013 TEMPO 4500 SHRA BKN020TCU
  • 240730Z AUTO 13004KT 9999 FEW029 27/22 Q1013 TEMPO 4500 SHRA BKN020TCU
  • 240700Z AUTO 14003KT 9999 BKN027 BKN034 BKN056 27/22 Q1013 TEMPO 4500 SHRA BKN020TCU
  • 240630Z AUTO 13005KT 9999 FEW029 SCT060 27/22 Q1013 TEMPO 4500 SHRA BKN020TCU
  • 240600Z AUTO 11006KT 9999 FEW060 27/22 Q1014 TEMPO 4500 SHRA BKN020TCU
  • 240530Z AUTO 10005KT CAVOK 27/22 Q1014 TEMPO 4500 SHRA BKN020TCU
  • 240500Z AUTO 13004KT 9999 FEW060 27/22 Q1015 TEMPO 4500 SHRA BKN020TCU

TAF TAF TFFF
Valid from the 24 at 06:00 until the 25 at 06:00 UTC


240500Z 2406/2506 13005KT 9000 SCT025
PROB30
TEMPO 2406/2411 4500 SHRA BKN020TCU
BECMG 2412/2415 08015KT
TEMPO 2420/2506 4000 SHRA BKN018TCU
PROB30
TEMPO 2423/2504 2500 SHRA SCT010CB BKN015TCU
BECMG 2500/2503 09005KT
TTZP FIR / North America



MET'MAP, your aeronautical weather chart ! - Copyright ORBIFLY December 2007 - Disclaimer

ORBIFLY MET'MAP TEAM :

Programming & Development : Alexandra Zaïnal
Original concept : Baudouin d'Aumeries
Technical & hardware support : Manuel Goepfert
Assistance : Marc-Olivier Méhu




SOURCES & CREDITS :

   NOAA